تبوك, السعودية

07:40 PM AST on مارس 04, 2015 (GMT +0300)
Tabuk | Change Station
CLOSE
Current Station
Airport
Location: Tabuk,
Elevation: 2520 ft
Nearby Weather Stations

Elev 2520 ft 28.38 °N, 36.60 °E | Updated 40 minutes ago

Partly Cloudy
غائم جزئياً
64 °F
Feels Like 64 °F
N
10
ريح متغير ريح from شمال

هذا اليوم
High -- | Low -- °F
--% Chance of Precip.
Yesterday
High -- | Low -- °F
Precip. -- في
6:55 AM 6:35 PM
الأحدب الأول, 99% visible
الضغط 30.01 في
وضوح الرؤية 6.2 أميال
سحابات Few 4000 ft
نقطة الندى 27 °F
الرطوبة 24%
Rainfall 0.00 في
عمق الثلج Not available.
الأشعة فوق البنفسجية 0 out of 12
Pollen Not available.
جودة الهواء Not available.
Flu Activity Not available.
METAR OETB 041600Z 36009KT 9999 FEW040 18/M03 Q1016 NOSIG

More Conditions Fewer Conditions

الضغط 30.01 في
وضوح الرؤية 6.2 أميال
سحابات Few 4000 ft
نقطة الندى 27 °F
الرطوبة 24%
Rainfall 0.00 في
عمق الثلج Not available.
الأشعة فوق البنفسجية 0 out of 12
Pollen Not available.
جودة الهواء Not available.
Flu Activity Not available.
METAR OETB 041600Z 36009KT 9999 FEW040 18/M03 Q1016 NOSIG

More Conditions Fewer Conditions

10-Day Weather Forecast

Almanac

علم الفلك

Mar. 04, 2015 Rise Set
Actual Time
Civil Twilight
Nautical Twilight
Astronomical Twilight
قمر
Length Of Visible Light
طول الیوم
Tomorrow will be .
, % of the Moon is Illuminated

Today's Extremes

Country Highs Country Lows

Community

WunderPhotos

Upload Photos

1,802,503 photos uploaded!

WunderBlogs® & News

Nearby

جودة الهواء

  جودة الهواء AQ Index Pollutant
Not available.

عمق الثلج

Station Depth Elevation

Earthquake Activity

City Distance Mag. Time & Date
Minimum magnitude displayed is 2.5.

Coastal Water Temperatures

مكان درجات الحرارة

Nearby Weather Stations